createdAt,value
2023-04-05T00:11:17.692Z,56.95
2023-04-05T00:26:21.578Z,57.51
2023-04-05T00:41:24.189Z,62.35
2023-04-05T00:56:28.317Z,50.32
2023-04-05T01:11:33.572Z,53.66
2023-04-05T01:26:53.052Z,57.18
2023-04-05T01:42:01.218Z,63.96
2023-04-05T01:57:05.130Z,49.58
2023-04-05T02:12:07.687Z,52.63
2023-04-05T02:27:10.790Z,57.73
2023-04-05T02:42:13.594Z,64.64
2023-04-05T02:57:16.337Z,50.07
2023-04-05T03:12:19.254Z,54.07
2023-04-05T03:27:21.934Z,60.53
2023-04-05T03:42:24.908Z,51.38
2023-04-05T03:57:29.117Z,55.25
2023-04-05T04:12:31.790Z,60.78
2023-04-05T04:27:35.754Z,51.77
2023-04-05T04:42:38.860Z,55.73
2023-04-05T04:57:42.919Z,63.34
2023-04-05T05:12:45.867Z,49.00
2023-04-05T05:27:51.028Z,50.91
2023-04-05T05:42:53.686Z,53.91
2023-04-05T05:57:56.447Z,57.54
2023-04-05T06:12:59.091Z,59.41
2023-04-05T06:28:03.433Z,49.60
2023-04-05T06:43:06.362Z,48.95
2023-04-05T06:58:09.059Z,50.24
2023-04-05T07:13:11.623Z,52.06
2023-04-05T07:28:14.247Z,52.58
2023-04-05T07:43:19.542Z,54.13
2023-04-05T07:58:22.699Z,55.49
2023-04-05T08:13:25.391Z,55.93
2023-04-05T08:28:27.977Z,54.54
2023-04-05T08:43:55.362Z,46.62
2023-04-05T08:59:07.230Z,38.55
2023-04-05T09:14:11.594Z,34.40
2023-04-05T09:29:30.162Z,31.51
2023-04-05T09:45:03.170Z,36.82
2023-04-05T10:00:16.766Z,40.61
2023-04-05T10:15:19.596Z,40.46
2023-04-05T10:30:24.392Z,42.02
2023-04-05T10:45:28.862Z,42.64
2023-04-05T11:00:33.147Z,39.78
2023-04-05T11:15:36.471Z,39.85
2023-04-05T11:30:54.134Z,44.74
2023-04-05T11:45:56.884Z,46.12
2023-04-05T12:01:01.067Z,46.54
2023-04-05T12:16:09.352Z,47.73
2023-04-05T12:31:12.116Z,47.83
2023-04-05T12:46:18.452Z,47.18
2023-04-05T13:01:21.074Z,49.53
2023-04-05T13:16:23.691Z,51.23
2023-04-05T13:31:27.165Z,52.61
2023-04-05T13:46:29.913Z,55.17
2023-04-05T14:01:34.128Z,57.00
2023-04-05T14:16:38.086Z,57.09
2023-04-05T14:31:40.847Z,59.82
2023-04-05T14:46:43.624Z,59.43
2023-04-05T15:01:47.385Z,57.47
2023-04-05T15:16:50.572Z,56.98
2023-04-05T15:31:53.561Z,56.50
2023-04-05T15:46:56.275Z,56.29
2023-04-05T16:01:58.942Z,56.67
2023-04-05T16:17:04.413Z,57.14
2023-04-05T16:32:08.483Z,57.36
2023-04-05T16:47:11.066Z,57.74
2023-04-05T17:02:13.689Z,58.63
2023-04-05T17:17:16.741Z,58.90
2023-04-05T17:32:19.326Z,62.73
2023-04-05T17:47:21.934Z,50.86
2023-04-05T18:02:24.714Z,54.34
2023-04-05T18:17:28.199Z,57.53
2023-04-05T18:32:31.357Z,61.96
2023-04-05T18:47:36.535Z,53.55
2023-04-05T19:02:39.358Z,56.58
2023-04-05T19:17:42.769Z,63.87
2023-04-05T19:32:45.735Z,52.07
2023-04-05T19:47:48.633Z,56.07
2023-04-05T20:02:51.942Z,63.07
2023-04-05T20:17:54.708Z,52.14
2023-04-05T20:32:57.733Z,57.02
2023-04-05T20:48:01.019Z,65.48
2023-04-05T21:03:04.014Z,51.91
2023-04-05T21:18:08.434Z,56.67
2023-04-05T21:33:12.205Z,63.80
2023-04-05T21:48:14.955Z,51.68
2023-04-05T22:03:17.579Z,56.27
2023-04-05T22:18:20.310Z,64.48
2023-04-05T22:33:22.973Z,52.39
2023-04-05T22:48:26.177Z,59.12
2023-04-05T23:03:28.760Z,53.23
2023-04-05T23:18:31.569Z,60.30
2023-04-05T23:33:34.460Z,52.12
2023-04-05T23:48:37.306Z,56.60
